createdAt,value
2023-04-08T00:00:09.835Z,100736.80
2023-04-08T00:00:37.144Z,100737.05
2023-04-08T00:01:15.808Z,100742.79
2023-04-08T00:01:39.606Z,100737.96
2023-04-08T00:02:03.652Z,100739.75
2023-04-08T00:02:27.017Z,100738.95
2023-04-08T00:02:50.902Z,100742.88
2023-04-08T00:03:14.184Z,100742.19
2023-04-08T00:03:37.928Z,100740.33
2023-04-08T00:04:01.365Z,100736.04
2023-04-08T00:04:25.937Z,100738.99
2023-04-08T00:04:51.884Z,100738.06
2023-04-08T00:05:15.049Z,100736.25
2023-04-08T00:05:39.423Z,100736.41
2023-04-08T00:06:04.008Z,100734.66
2023-04-08T00:06:28.964Z,100734.27
2023-04-08T00:06:52.053Z,100734.08
2023-04-08T00:07:15.406Z,100735.45
2023-04-08T00:07:38.919Z,100732.85
2023-04-08T00:08:02.244Z,100732.63
2023-04-08T00:08:25.769Z,100730.37
2023-04-08T00:08:49.164Z,100727.19
2023-04-08T00:09:12.501Z,100728.44
2023-04-08T00:09:35.922Z,100729.66
2023-04-08T00:09:59.369Z,100728.30
2023-04-08T00:10:22.765Z,100727.14
2023-04-08T00:10:46.289Z,100728.52
2023-04-08T00:11:15.382Z,100728.08
2023-04-08T00:11:45.305Z,100726.80
2023-04-08T00:12:10.357Z,100726.76
2023-04-08T00:12:33.674Z,100727.17
2023-04-08T00:12:56.886Z,100724.98
2023-04-08T00:13:21.849Z,100725.80
2023-04-08T00:13:46.187Z,100726.23
2023-04-08T00:14:09.413Z,100726.70
2023-04-08T00:14:32.725Z,100725.09
2023-04-08T00:14:56.245Z,100726.13
2023-04-08T00:15:19.882Z,100723.29
2023-04-08T00:15:43.910Z,100723.46
2023-04-08T00:16:08.156Z,100726.26
2023-04-08T00:16:31.324Z,100723.30
2023-04-08T00:16:55.225Z,100726.48
2023-04-08T00:17:19.017Z,100721.33
2023-04-08T00:17:42.487Z,100724.09
2023-04-08T00:18:05.816Z,100722.65
2023-04-08T00:18:31.532Z,100724.52
2023-04-08T00:18:56.897Z,100726.04
2023-04-08T00:19:23.593Z,100728.19
2023-04-08T00:19:46.708Z,100726.23
2023-04-08T00:20:10.043Z,100727.11
2023-04-08T00:20:33.343Z,100727.52
2023-04-08T00:20:57.582Z,100724.83
2023-04-08T00:21:21.413Z,100722.10
2023-04-08T00:21:45.548Z,100724.83
2023-04-08T00:22:09.075Z,100725.85
2023-04-08T00:22:32.802Z,100723.66
2023-04-08T00:22:56.114Z,100723.14
2023-04-08T00:23:21.599Z,100723.13
2023-04-08T00:23:44.599Z,100721.49
2023-04-08T00:24:07.812Z,100724.01
2023-04-08T00:24:31.571Z,100724.67
2023-04-08T00:24:54.759Z,100723.30
2023-04-08T00:25:19.625Z,100722.94
2023-04-08T00:25:45.692Z,100721.23
2023-04-08T00:26:09.925Z,100722.73
2023-04-08T00:26:33.552Z,100723.22
2023-04-08T00:26:57.384Z,100723.63
2023-04-08T00:27:20.494Z,100726.89
2023-04-08T00:27:43.932Z,100728.39
2023-04-08T00:28:07.086Z,100726.38
2023-04-08T00:28:31.181Z,100726.30
2023-04-08T00:28:54.488Z,100724.96
2023-04-08T00:29:17.810Z,100726.98
2023-04-08T00:29:41.331Z,100725.06
2023-04-08T00:30:04.960Z,100727.60
2023-04-08T00:30:28.376Z,100726.09
2023-04-08T00:30:52.843Z,100726.98
2023-04-08T00:31:16.606Z,100725.23
2023-04-08T00:31:40.376Z,100724.23
2023-04-08T00:32:04.318Z,100722.81
2023-04-08T00:32:28.480Z,100722.25
2023-04-08T00:32:52.101Z,100722.36
2023-04-08T00:33:15.416Z,100724.16
2023-04-08T00:33:39.032Z,100722.83
2023-04-08T00:34:02.268Z,100719.38
2023-04-08T00:34:25.759Z,100722.14
2023-04-08T00:34:50.096Z,100722.38
2023-04-08T00:35:14.380Z,100719.88
2023-04-08T00:35:38.005Z,100720.58
2023-04-08T00:36:01.132Z,100717.70
2023-04-08T00:36:24.493Z,100719.65
2023-04-08T00:36:49.553Z,100720.21
2023-04-08T00:37:12.564Z,100718.56
2023-04-08T00:37:35.897Z,100722.86
2023-04-08T00:38:08.156Z,100719.44
2023-04-08T00:38:31.928Z,100720.78
2023-04-08T00:38:55.569Z,100720.65
2023-04-08T00:39:18.771Z,100720.56
2023-04-08T00:39:42.295Z,100721.52
2023-04-08T00:40:06.736Z,100719.68
2023-04-08T00:40:31.280Z,100719.24
2023-04-08T00:40:54.400Z,100720.95
2023-04-08T00:41:18.635Z,100718.92
2023-04-08T00:41:41.961Z,100719.36
2023-04-08T00:42:04.965Z,100719.46
2023-04-08T00:42:28.694Z,100720.05
2023-04-08T00:42:51.707Z,100718.75
2023-04-08T00:43:16.732Z,100717.72
2023-04-08T00:43:43.773Z,100718.10
2023-04-08T00:44:07.596Z,100719.94
2023-04-08T00:44:32.859Z,100719.48
2023-04-08T00:44:56.295Z,100716.60
2023-04-08T00:45:19.390Z,100713.28
2023-04-08T00:45:43.753Z,100716.98
2023-04-08T00:46:07.993Z,100715.34
2023-04-08T00:46:32.109Z,100713.70
2023-04-08T00:46:55.472Z,100715.65
2023-04-08T00:47:19.159Z,100714.02
2023-04-08T00:47:42.387Z,100712.52
2023-04-08T00:48:05.610Z,100712.96
2023-04-08T00:48:29.835Z,100712.91
2023-04-08T00:48:59.137Z,100711.23
2023-04-08T00:49:26.590Z,100710.35
2023-04-08T00:49:49.600Z,100711.69
2023-04-08T00:50:13.038Z,100711.19
2023-04-08T00:50:56.403Z,100709.41
2023-04-08T00:51:39.250Z,100712.38
2023-04-08T00:52:02.558Z,100711.52
2023-04-08T00:52:26.489Z,100712.42
2023-04-08T00:52:50.116Z,100713.09
2023-04-08T00:53:24.223Z,100711.66
2023-04-08T00:53:48.281Z,100712.92
2023-04-08T00:54:11.696Z,100712.25
2023-04-08T00:54:36.897Z,100714.41
2023-04-08T00:54:59.900Z,100716.91
2023-04-08T00:55:23.014Z,100713.84
2023-04-08T00:55:46.339Z,100713.02
2023-04-08T00:56:09.451Z,100714.30
2023-04-08T00:56:32.987Z,100713.73
2023-04-08T00:56:57.019Z,100714.34
2023-04-08T00:57:20.127Z,100714.58
2023-04-08T00:57:46.100Z,100714.93
2023-04-08T00:58:14.140Z,100713.97
2023-04-08T00:58:38.770Z,100715.39
2023-04-08T00:59:02.200Z,100714.52
2023-04-08T00:59:25.518Z,100716.98
2023-04-08T00:59:48.826Z,100716.91
2023-04-08T01:00:12.363Z,100714.74
2023-04-08T01:00:43.156Z,100713.73
2023-04-08T01:01:08.824Z,100714.86
2023-04-08T01:01:39.175Z,100716.85
2023-04-08T01:02:24.610Z,100718.85
2023-04-08T01:02:54.734Z,100717.64
2023-04-08T01:03:36.318Z,100717.00
2023-04-08T01:04:02.956Z,100714.61
2023-04-08T01:04:41.126Z,100715.52
2023-04-08T01:05:07.828Z,100719.95
2023-04-08T01:05:33.082Z,100717.21
2023-04-08T01:06:00.696Z,100719.17
2023-04-08T01:06:23.706Z,100718.38
2023-04-08T01:06:49.591Z,100717.11
2023-04-08T01:07:20.474Z,100718.98
2023-04-08T01:07:52.483Z,100717.21
2023-04-08T01:08:16.035Z,100720.39
2023-04-08T01:08:39.221Z,100719.86
2023-04-08T01:09:02.548Z,100721.10
2023-04-08T01:09:27.399Z,100718.96
2023-04-08T01:09:57.998Z,100720.36
2023-04-08T01:10:26.307Z,100721.75
2023-04-08T01:10:49.964Z,100723.17
2023-04-08T01:11:13.356Z,100721.67
2023-04-08T01:11:37.193Z,100721.18
2023-04-08T01:12:01.320Z,100722.18
2023-04-08T01:12:28.929Z,100723.92
2023-04-08T01:12:54.293Z,100721.90
2023-04-08T01:13:17.926Z,100721.84
2023-04-08T01:13:41.547Z,100724.39
2023-04-08T01:14:07.530Z,100724.29
2023-04-08T01:14:35.750Z,100722.84
2023-04-08T01:15:08.312Z,100725.56
2023-04-08T01:15:32.857Z,100723.36
2023-04-08T01:15:56.041Z,100724.13
2023-04-08T01:16:20.833Z,100724.94
2023-04-08T01:16:43.903Z,100725.77
2023-04-08T01:17:07.123Z,100726.36
2023-04-08T01:17:31.176Z,100728.55
2023-04-08T01:17:56.370Z,100728.80
2023-04-08T01:18:19.335Z,100727.38
2023-04-08T01:18:42.436Z,100726.98
2023-04-08T01:19:06.288Z,100728.73
2023-04-08T01:19:31.120Z,100730.13
2023-04-08T01:19:54.254Z,100730.33
2023-04-08T01:20:22.676Z,100732.65
2023-04-08T01:20:46.396Z,100730.53
2023-04-08T01:21:10.535Z,100732.38
2023-04-08T01:21:33.643Z,100729.89
2023-04-08T01:21:59.112Z,100729.70
2023-04-08T01:22:28.053Z,100731.85
2023-04-08T01:23:00.272Z,100733.11
2023-04-08T01:23:25.534Z,100733.10
2023-04-08T01:24:09.211Z,100731.57
2023-04-08T01:24:34.157Z,100734.71
2023-04-08T01:25:03.214Z,100733.28
2023-04-08T01:25:33.787Z,100734.99
2023-04-08T01:25:56.902Z,100732.81
2023-04-08T01:26:22.482Z,100732.23
2023-04-08T01:26:46.200Z,100732.67
2023-04-08T01:27:09.418Z,100732.44
2023-04-08T01:27:32.940Z,100735.02
2023-04-08T01:27:57.808Z,100731.09
2023-04-08T01:28:23.261Z,100734.09
2023-04-08T01:28:47.158Z,100733.52
2023-04-08T01:29:10.510Z,100734.75
2023-04-08T01:29:34.144Z,100734.02
2023-04-08T01:29:57.243Z,100733.56
2023-04-08T01:30:21.502Z,100730.78
2023-04-08T01:30:44.942Z,100731.90
2023-04-08T01:31:07.898Z,100733.71
2023-04-08T01:31:32.209Z,100732.52
2023-04-08T01:31:55.677Z,100732.41
2023-04-08T01:32:18.794Z,100730.77
2023-04-08T01:32:42.699Z,100731.59
2023-04-08T01:33:05.933Z,100734.52
2023-04-08T01:33:29.259Z,100733.74
2023-04-08T01:33:58.407Z,100732.23
2023-04-08T01:34:21.539Z,100735.70
2023-04-08T01:34:44.642Z,100735.79
2023-04-08T01:35:08.260Z,100734.32
2023-04-08T01:35:44.005Z,100736.36
2023-04-08T01:36:07.802Z,100737.02
2023-04-08T01:36:35.911Z,100735.52
2023-04-08T01:36:59.351Z,100737.20
2023-04-08T01:37:22.549Z,100734.77
2023-04-08T01:37:48.733Z,100737.61
2023-04-08T01:38:14.403Z,100737.96
2023-04-08T01:38:37.417Z,100738.83
2023-04-08T01:39:01.155Z,100736.65
2023-04-08T01:39:24.554Z,100736.87
2023-04-08T01:39:48.003Z,100739.22
2023-04-08T01:40:11.426Z,100737.66
2023-04-08T01:40:38.098Z,100739.86
2023-04-08T01:41:01.132Z,100738.69
2023-04-08T01:41:25.984Z,100738.94
2023-04-08T01:41:51.541Z,100739.35
2023-04-08T01:42:22.317Z,100740.83
2023-04-08T01:42:48.812Z,100740.54
2023-04-08T01:43:14.275Z,100740.79
2023-04-08T01:43:39.331Z,100738.21
2023-04-08T01:44:03.370Z,100738.15
2023-04-08T01:44:26.683Z,100741.30
2023-04-08T01:44:50.521Z,100739.00
2023-04-08T01:45:13.650Z,100736.73
2023-04-08T01:45:37.559Z,100736.79
2023-04-08T01:46:00.884Z,100738.96
2023-04-08T01:46:24.441Z,100742.98
2023-04-08T01:46:47.643Z,100739.73
2023-04-08T01:47:10.934Z,100739.83
2023-04-08T01:47:38.312Z,100742.48
2023-04-08T01:48:01.753Z,100740.86
2023-04-08T01:48:25.189Z,100740.73
2023-04-08T01:48:49.100Z,100741.91
2023-04-08T01:49:12.351Z,100739.52
2023-04-08T01:49:35.861Z,100741.19
2023-04-08T01:49:58.973Z,100740.39
2023-04-08T01:50:22.315Z,100740.74
2023-04-08T01:50:45.509Z,100742.67
2023-04-08T01:51:09.958Z,100740.19
2023-04-08T01:51:33.070Z,100739.14
2023-04-08T01:51:57.107Z,100739.41
2023-04-08T01:52:20.726Z,100742.56
2023-04-08T01:52:44.973Z,100741.83
2023-04-08T01:53:10.127Z,100745.31
2023-04-08T01:53:36.005Z,100738.75
2023-04-08T01:53:59.523Z,100738.23
2023-04-08T01:54:22.637Z,100739.60
2023-04-08T01:54:46.266Z,100741.70
2023-04-08T01:55:09.375Z,100742.05
2023-04-08T01:55:32.492Z,100741.70
2023-04-08T01:55:57.582Z,100743.30
2023-04-08T01:56:21.890Z,100742.25
2023-04-08T01:56:46.229Z,100741.30
2023-04-08T01:57:09.447Z,100743.21
2023-04-08T01:57:33.176Z,100742.52
2023-04-08T01:57:56.394Z,100743.77
2023-04-08T01:58:20.736Z,100742.35
2023-04-08T01:58:46.936Z,100743.05
2023-04-08T01:59:11.365Z,100740.48
2023-04-08T01:59:35.924Z,100744.90
2023-04-08T02:00:02.295Z,100746.52
2023-04-08T02:00:26.943Z,100747.77
2023-04-08T02:00:51.080Z,100745.73
2023-04-08T02:01:22.963Z,100747.00
2023-04-08T02:01:47.323Z,100746.50
2023-04-08T02:02:11.073Z,100745.63
2023-04-08T02:02:35.208Z,100744.43
2023-04-08T02:02:59.070Z,100748.00
2023-04-08T02:03:23.033Z,100747.20
2023-04-08T02:03:47.438Z,100749.01
2023-04-08T02:04:10.844Z,100747.04
2023-04-08T02:04:35.165Z,100748.02
2023-04-08T02:04:58.478Z,100748.81
2023-04-08T02:05:21.800Z,100745.17
2023-04-08T02:05:45.013Z,100747.56
2023-04-08T02:06:08.132Z,100745.81
2023-04-08T02:06:32.163Z,100745.52
2023-04-08T02:06:56.216Z,100742.36
2023-04-08T02:07:19.414Z,100745.41
2023-04-08T02:07:45.710Z,100744.02
2023-04-08T02:08:09.833Z,100744.75
2023-04-08T02:08:34.072Z,100743.85
2023-04-08T02:08:57.697Z,100745.10
2023-04-08T02:09:21.528Z,100742.45
2023-04-08T02:09:44.644Z,100740.73
2023-04-08T02:10:08.900Z,100739.03
2023-04-08T02:10:32.836Z,100738.90
2023-04-08T02:10:56.646Z,100742.44
2023-04-08T02:11:21.502Z,100741.06
2023-04-08T02:11:44.821Z,100740.94
2023-04-08T02:12:09.059Z,100737.45
2023-04-08T02:12:33.089Z,100740.70
2023-04-08T02:12:56.774Z,100739.34
2023-04-08T02:13:19.841Z,100738.44
2023-04-08T02:13:42.952Z,100739.23
2023-04-08T02:14:05.977Z,100738.95
2023-04-08T02:14:31.629Z,100737.96
2023-04-08T02:15:00.594Z,100737.02
2023-04-08T02:15:27.507Z,100738.64
2023-04-08T02:16:02.766Z,100740.16
2023-04-08T02:16:31.463Z,100738.96
2023-04-08T02:17:15.701Z,100736.84
2023-04-08T02:17:42.042Z,100738.79
2023-04-08T02:18:16.221Z,100736.90
2023-04-08T02:18:39.847Z,100740.36
2023-04-08T02:19:06.978Z,100740.19
2023-04-08T02:19:30.925Z,100741.17
2023-04-08T02:19:57.301Z,100742.46
2023-04-08T02:20:22.233Z,100741.66
2023-04-08T02:20:48.010Z,100744.33
2023-04-08T02:21:19.496Z,100744.13
2023-04-08T02:21:47.723Z,100742.16
2023-04-08T02:22:18.408Z,100740.23
2023-04-08T02:22:43.774Z,100740.78
2023-04-08T02:23:11.181Z,100742.22
2023-04-08T02:23:34.192Z,100741.41
2023-04-08T02:23:57.917Z,100742.49
2023-04-08T02:24:21.241Z,100744.16
2023-04-08T02:24:44.762Z,100740.95
2023-04-08T02:25:08.681Z,100742.17
2023-04-08T02:25:31.817Z,100741.48
2023-04-08T02:25:55.952Z,100744.16
2023-04-08T02:26:22.947Z,100745.95
2023-04-08T02:26:46.365Z,100746.53
2023-04-08T02:27:09.889Z,100745.83
2023-04-08T02:27:33.927Z,100744.80
2023-04-08T02:28:00.824Z,100747.29
2023-04-08T02:28:25.676Z,100745.20
2023-04-08T02:28:49.619Z,100747.72
2023-04-08T02:29:13.949Z,100743.84
2023-04-08T02:29:37.678Z,100747.72
2023-04-08T02:30:03.990Z,100747.55
2023-04-08T02:30:29.839Z,100743.87
2023-04-08T02:30:53.917Z,100745.56
2023-04-08T02:31:18.127Z,100746.65
2023-04-08T02:31:43.589Z,100745.39
2023-04-08T02:32:06.998Z,100747.83
2023-04-08T02:32:33.614Z,100747.09
2023-04-08T02:32:56.994Z,100750.44
2023-04-08T02:33:21.148Z,100748.63
2023-04-08T02:33:44.057Z,100750.89
2023-04-08T02:34:07.168Z,100746.81
2023-04-08T02:34:30.797Z,100746.22
2023-04-08T02:34:53.751Z,100747.62
2023-04-08T02:35:17.563Z,100747.85
2023-04-08T02:35:44.244Z,100751.52
2023-04-08T02:36:10.106Z,100749.03
2023-04-08T02:36:35.776Z,100751.80
2023-04-08T02:38:02.103Z,100744.97
2023-04-08T02:38:30.030Z,100747.78
2023-04-08T02:38:53.271Z,100750.73
2023-04-08T02:39:17.268Z,100753.05
2023-04-08T02:39:44.000Z,100751.33
2023-04-08T02:40:23.647Z,100749.89
2023-04-08T02:40:47.060Z,100750.79
2023-04-08T02:41:10.074Z,100751.16
2023-04-08T02:41:33.091Z,100747.27
2023-04-08T02:41:56.203Z,100751.67
2023-04-08T02:42:19.386Z,100750.52
2023-04-08T02:42:49.690Z,100754.17
2023-04-08T02:43:13.109Z,100752.81
2023-04-08T02:43:36.957Z,100749.59
2023-04-08T02:44:05.577Z,100752.34
2023-04-08T02:44:29.235Z,100751.38
2023-04-08T02:44:57.127Z,100749.84
2023-04-08T02:45:20.970Z,100750.62
2023-04-08T02:45:45.620Z,100752.42
2023-04-08T02:46:09.150Z,100754.42
2023-04-08T02:46:35.103Z,100755.11
2023-04-08T02:46:59.039Z,100755.90
2023-04-08T02:47:22.270Z,100754.72
2023-04-08T02:47:45.760Z,100751.62
2023-04-08T02:48:09.301Z,100751.83
2023-04-08T02:48:33.253Z,100750.79
2023-04-08T02:48:56.359Z,100751.41
2023-04-08T02:49:19.466Z,100752.11
2023-04-08T02:49:42.879Z,100751.98
2023-04-08T02:50:07.729Z,100752.68
2023-04-08T02:50:37.293Z,100756.66
2023-04-08T02:51:01.194Z,100752.48
2023-04-08T02:51:24.759Z,100751.20
2023-04-08T02:51:49.091Z,100752.67
2023-04-08T02:52:12.509Z,100752.40
2023-04-08T02:52:37.663Z,100751.63
2023-04-08T02:53:01.190Z,100751.09
2023-04-08T02:53:24.794Z,100753.76
2023-04-08T02:53:48.238Z,100756.02
2023-04-08T02:54:11.555Z,100756.91
2023-04-08T02:54:34.769Z,100756.89
2023-04-08T02:54:58.292Z,100758.30
2023-04-08T02:55:21.919Z,100754.77
2023-04-08T02:55:45.033Z,100759.27
2023-04-08T02:56:11.764Z,100755.20
2023-04-08T02:56:35.756Z,100758.42
2023-04-08T02:57:05.632Z,100756.88
2023-04-08T02:57:34.362Z,100759.81
2023-04-08T02:58:00.976Z,100760.58
2023-04-08T02:58:24.169Z,100763.66
2023-04-08T02:58:48.031Z,100766.03
2023-04-08T02:59:11.319Z,100763.27
2023-04-08T02:59:37.910Z,100761.75
2023-04-08T03:00:01.440Z,100763.20
2023-04-08T03:00:27.924Z,100759.02
2023-04-08T03:00:52.412Z,100758.40
2023-04-08T03:01:17.849Z,100758.28
2023-04-08T03:01:41.333Z,100761.60
2023-04-08T03:02:04.583Z,100762.10
2023-04-08T03:02:28.028Z,100762.63
2023-04-08T03:02:51.444Z,100764.08
2023-04-08T03:03:14.917Z,100763.79
2023-04-08T03:03:38.491Z,100764.17
2023-04-08T03:04:01.814Z,100764.96
2023-04-08T03:04:25.205Z,100766.24
2023-04-08T03:04:48.622Z,100765.77
2023-04-08T03:05:11.943Z,100763.51
2023-04-08T03:05:34.951Z,100766.35
2023-04-08T03:05:58.604Z,100768.73
2023-04-08T03:06:21.794Z,100767.37
2023-04-08T03:06:45.018Z,100767.42
2023-04-08T03:07:08.857Z,100767.59
2023-04-08T03:07:39.636Z,100764.77
2023-04-08T03:08:02.942Z,100763.48
2023-04-08T03:08:27.807Z,100766.08
2023-04-08T03:08:51.895Z,100768.31
2023-04-08T03:09:17.105Z,100765.39
2023-04-08T03:09:40.522Z,100770.20
2023-04-08T03:10:03.808Z,100772.42
2023-04-08T03:10:27.452Z,100770.73
2023-04-08T03:10:51.180Z,100773.11
2023-04-08T03:11:15.562Z,100774.08
2023-04-08T03:11:39.220Z,100774.34
2023-04-08T03:12:02.282Z,100775.29
2023-04-08T03:12:27.544Z,100778.08
2023-04-08T03:12:50.847Z,100774.80
2023-04-08T03:13:14.072Z,100776.14
2023-04-08T03:13:37.376Z,100778.42
2023-04-08T03:14:06.317Z,100773.02
2023-04-08T03:14:32.300Z,100776.89
2023-04-08T03:14:56.440Z,100777.14
2023-04-08T03:15:19.568Z,100777.02
2023-04-08T03:15:44.611Z,100776.91
2023-04-08T03:16:08.494Z,100775.94
2023-04-08T03:16:31.957Z,100777.10
2023-04-08T03:16:55.799Z,100777.69
2023-04-08T03:17:18.868Z,100780.59
2023-04-08T03:17:42.512Z,100776.97
2023-04-08T03:18:06.227Z,100779.32
2023-04-08T03:18:29.710Z,100784.85
2023-04-08T03:18:52.977Z,100782.41
2023-04-08T03:19:16.364Z,100780.88
2023-04-08T03:19:39.433Z,100783.37
2023-04-08T03:20:05.116Z,100782.81
2023-04-08T03:20:28.193Z,100783.01
2023-04-08T03:21:03.806Z,100782.39
2023-04-08T03:21:31.954Z,100781.61
2023-04-08T03:21:54.944Z,100780.84
2023-04-08T03:22:19.083Z,100780.06
2023-04-08T03:22:42.767Z,100781.27
2023-04-08T03:23:06.232Z,100778.75
2023-04-08T03:23:30.775Z,100781.49
2023-04-08T03:23:53.899Z,100779.25
2023-04-08T03:24:17.001Z,100779.55
2023-04-08T03:24:40.526Z,100780.02
2023-04-08T03:25:04.560Z,100780.79
2023-04-08T03:25:29.308Z,100782.89
2023-04-08T03:25:52.530Z,100780.55
2023-04-08T03:26:16.060Z,100780.16
2023-04-08T03:26:39.064Z,100779.98
2023-04-08T03:27:02.380Z,100779.44
2023-04-08T03:27:26.420Z,100780.41
2023-04-08T03:27:51.375Z,100778.32
2023-04-08T03:28:14.557Z,100779.21
2023-04-08T03:28:39.235Z,100778.58
2023-04-08T03:29:02.873Z,100781.05
2023-04-08T03:29:26.383Z,100783.02
2023-04-08T03:29:49.904Z,100780.95
2023-04-08T03:30:13.223Z,100778.16
2023-04-08T03:30:36.850Z,100779.50
2023-04-08T03:31:04.983Z,100777.46
2023-04-08T03:31:28.767Z,100780.87
2023-04-08T03:31:52.019Z,100781.30
2023-04-08T03:32:15.546Z,100782.96
2023-04-08T03:32:38.585Z,100781.30
2023-04-08T03:33:04.759Z,100786.48
2023-04-08T03:33:29.597Z,100783.20
2023-04-08T03:33:52.747Z,100783.77
2023-04-08T03:34:16.639Z,100784.96
2023-04-08T03:34:42.311Z,100787.31
2023-04-08T03:35:05.833Z,100785.33
2023-04-08T03:35:29.521Z,100784.23
2023-04-08T03:35:54.325Z,100786.69
2023-04-08T03:36:19.371Z,100783.45
2023-04-08T03:36:43.191Z,100784.29
2023-04-08T03:37:07.712Z,100785.90
2023-04-08T03:37:31.165Z,100784.81
2023-04-08T03:37:55.207Z,100788.37
2023-04-08T03:38:18.282Z,100787.80
2023-04-08T03:38:41.427Z,100789.02
2023-04-08T03:39:04.542Z,100789.39
2023-04-08T03:39:27.762Z,100787.88
2023-04-08T03:39:55.788Z,100789.89
2023-04-08T03:40:19.121Z,100788.38
2023-04-08T03:40:43.134Z,100790.89
2023-04-08T03:41:06.969Z,100790.91
2023-04-08T03:41:30.897Z,100789.77
2023-04-08T03:41:53.931Z,100789.45
2023-04-08T03:42:17.127Z,100786.00
2023-04-08T03:42:40.850Z,100788.23
2023-04-08T03:43:05.908Z,100786.58
2023-04-08T03:43:28.920Z,100787.08
2023-04-08T03:43:52.140Z,100785.66
2023-04-08T03:44:15.345Z,100785.27
2023-04-08T03:44:38.368Z,100788.94
2023-04-08T03:45:02.509Z,100787.69
2023-04-08T03:45:26.638Z,100787.35
2023-04-08T03:45:50.997Z,100791.15
2023-04-08T03:46:14.446Z,100793.64
2023-04-08T03:46:37.827Z,100795.23
2023-04-08T03:47:00.949Z,100795.44
2023-04-08T03:47:24.638Z,100798.02
2023-04-08T03:47:47.804Z,100798.45
2023-04-08T03:48:11.099Z,100798.57
2023-04-08T03:48:34.522Z,100798.48
2023-04-08T03:48:57.733Z,100799.95
2023-04-08T03:49:21.051Z,100798.68
2023-04-08T03:49:44.069Z,100799.08
2023-04-08T03:50:07.602Z,100799.15
2023-04-08T03:50:36.052Z,100797.15
2023-04-08T03:51:00.871Z,100796.56
2023-04-08T03:51:24.704Z,100794.55
2023-04-08T03:51:49.453Z,100793.34
2023-04-08T03:52:12.565Z,100794.86
2023-04-08T03:52:36.498Z,100800.36
2023-04-08T03:53:00.335Z,100801.45
2023-04-08T03:53:24.059Z,100798.48
2023-04-08T03:53:48.407Z,100803.15
2023-04-08T03:54:11.720Z,100803.17
2023-04-08T03:54:35.109Z,100805.36
2023-04-08T03:54:58.178Z,100802.82
2023-04-08T03:55:21.367Z,100803.02
2023-04-08T03:55:44.580Z,100804.46
2023-04-08T03:56:10.050Z,100802.72
2023-04-08T03:56:34.288Z,100799.37
2023-04-08T03:56:59.658Z,100802.71
2023-04-08T03:57:23.499Z,100799.70
2023-04-08T03:57:46.825Z,100803.71
2023-04-08T03:58:10.032Z,100800.30
2023-04-08T03:58:33.638Z,100797.76
2023-04-08T03:58:57.204Z,100801.95
2023-04-08T03:59:20.277Z,100798.85
2023-04-08T03:59:43.696Z,100803.34
2023-04-08T04:00:07.330Z,100805.56
2023-04-08T04:00:37.085Z,100804.89
2023-04-08T04:01:07.157Z,100800.05
2023-04-08T04:01:32.549Z,100800.61
2023-04-08T04:01:55.663Z,100800.90
2023-04-08T04:02:18.938Z,100804.60
2023-04-08T04:02:42.311Z,100800.44
2023-04-08T04:03:06.815Z,100802.52
2023-04-08T04:03:30.103Z,100802.52
2023-04-08T04:03:53.740Z,100801.99
2023-04-08T04:04:20.353Z,100801.83
2023-04-08T04:04:45.645Z,100805.67
2023-04-08T04:05:08.935Z,100806.73
2023-04-08T04:05:32.284Z,100805.52
2023-04-08T04:05:56.186Z,100808.08
2023-04-08T04:06:19.702Z,100807.71
2023-04-08T04:06:43.021Z,100806.71
2023-04-08T04:07:06.256Z,100806.91
2023-04-08T04:07:29.455Z,100807.80
2023-04-08T04:07:52.870Z,100807.64
2023-04-08T04:08:16.101Z,100809.57
2023-04-08T04:08:39.722Z,100808.87
2023-04-08T04:09:03.546Z,100810.30
2023-04-08T04:09:26.801Z,100807.99
2023-04-08T04:09:54.310Z,100805.42
2023-04-08T04:10:17.608Z,100806.76
2023-04-08T04:10:40.823Z,100808.34
2023-04-08T04:11:04.027Z,100804.58
2023-04-08T04:11:27.662Z,100805.83
2023-04-08T04:11:50.666Z,100804.66
2023-04-08T04:12:17.977Z,100804.05
2023-04-08T04:12:41.594Z,100802.23
2023-04-08T04:13:06.880Z,100801.25
2023-04-08T04:13:30.278Z,100802.98
2023-04-08T04:13:53.494Z,100805.11
2023-04-08T04:14:16.941Z,100802.98
2023-04-08T04:14:40.032Z,100802.96
2023-04-08T04:15:03.659Z,100805.08
2023-04-08T04:15:27.702Z,100802.45
2023-04-08T04:15:51.196Z,100804.41
2023-04-08T04:16:14.765Z,100803.99
2023-04-08T04:16:38.256Z,100805.05
2023-04-08T04:17:01.394Z,100802.72
2023-04-08T04:17:24.746Z,100804.47
2023-04-08T04:17:48.415Z,100802.48
2023-04-08T04:18:11.770Z,100807.86
2023-04-08T04:18:34.890Z,100806.80
2023-04-08T04:18:58.138Z,100808.20
2023-04-08T04:19:21.695Z,100808.50
2023-04-08T04:19:46.517Z,100803.80
2023-04-08T04:20:11.908Z,100806.16
2023-04-08T04:20:35.128Z,100810.01
2023-04-08T04:20:58.648Z,100809.58
2023-04-08T04:21:22.083Z,100808.66
2023-04-08T04:21:45.323Z,100812.08
2023-04-08T04:22:08.707Z,100808.87
2023-04-08T04:22:31.822Z,100809.00
2023-04-08T04:22:55.858Z,100811.89
2023-04-08T04:23:19.585Z,100813.02
2023-04-08T04:23:42.801Z,100810.85
2023-04-08T04:24:05.810Z,100809.67
2023-04-08T04:24:29.041Z,100811.87
2023-04-08T04:24:52.146Z,100809.52
2023-04-08T04:25:15.388Z,100811.66
2023-04-08T04:25:41.339Z,100811.27
2023-04-08T04:26:11.644Z,100816.42
2023-04-08T04:26:34.732Z,100812.63
2023-04-08T04:26:57.840Z,100815.30
2023-04-08T04:27:20.952Z,100812.20
2023-04-08T04:27:44.064Z,100814.34
2023-04-08T04:28:08.200Z,100813.00
2023-04-08T04:28:34.896Z,100812.86
2023-04-08T04:29:00.159Z,100811.31
2023-04-08T04:29:25.921Z,100813.02
2023-04-08T04:29:50.476Z,100811.49
2023-04-08T04:30:15.945Z,100811.06
2023-04-08T04:30:43.565Z,100815.20
2023-04-08T04:31:09.212Z,100810.55
2023-04-08T04:31:32.668Z,100807.34
2023-04-08T04:31:58.272Z,100808.71
2023-04-08T04:32:21.607Z,100812.75
2023-04-08T04:32:47.625Z,100809.88
2023-04-08T04:33:10.977Z,100809.86
2023-04-08T04:33:35.174Z,100806.42
2023-04-08T04:33:59.004Z,100812.52
2023-04-08T04:34:22.145Z,100808.52
2023-04-08T04:34:45.949Z,100810.67
2023-04-08T04:35:10.290Z,100810.43
2023-04-08T04:35:33.661Z,100809.92
2023-04-08T04:35:56.992Z,100812.08
2023-04-08T04:36:20.244Z,100813.48
2023-04-08T04:36:43.694Z,100813.10
2023-04-08T04:37:11.283Z,100811.02
2023-04-08T04:37:38.809Z,100815.80
2023-04-08T04:38:05.893Z,100812.45
2023-04-08T04:38:29.518Z,100812.60
2023-04-08T04:38:52.781Z,100813.73
2023-04-08T04:39:16.627Z,100816.06
2023-04-08T04:39:40.706Z,100810.61
2023-04-08T04:40:04.131Z,100813.14
2023-04-08T04:40:27.648Z,100808.14
2023-04-08T04:40:51.370Z,100811.23
2023-04-08T04:41:14.557Z,100812.30
2023-04-08T04:41:40.698Z,100812.27
2023-04-08T04:42:03.693Z,100812.30
2023-04-08T04:42:26.912Z,100815.48